createdAt,value
2023-01-07T00:01:47.245Z,100809.53
2023-01-07T00:05:50.312Z,100809.94
2023-01-07T00:09:53.348Z,100810.16
2023-01-07T00:13:58.379Z,100807.66
2023-01-07T00:18:02.786Z,100816.50
2023-01-07T00:22:05.904Z,100802.81
2023-01-07T00:26:10.682Z,100802.41
2023-01-07T00:30:14.641Z,100798.44
2023-01-07T00:34:23.538Z,100789.84
2023-01-07T00:38:26.596Z,100780.38
2023-01-07T00:42:47.084Z,100777.84
2023-01-07T00:46:50.119Z,100771.09
2023-01-07T00:50:55.047Z,100763.53
2023-01-07T00:54:59.120Z,100758.06
2023-01-07T00:59:02.199Z,100755.13
2023-01-07T01:03:05.325Z,100760.59
2023-01-07T01:07:09.818Z,100741.22
2023-01-07T01:11:14.332Z,100746.91
2023-01-07T01:15:18.528Z,100746.28
2023-01-07T01:19:21.598Z,100727.75
2023-01-07T01:23:25.964Z,100733.63
2023-01-07T01:27:30.615Z,100731.53
2023-01-07T01:31:33.710Z,100721.41
2023-01-07T01:35:40.978Z,100720.97
2023-01-07T01:39:45.652Z,100720.34
2023-01-07T01:43:48.842Z,100715.91
2023-01-07T01:47:57.540Z,100718.66
2023-01-07T01:52:05.673Z,100707.50
2023-01-07T01:56:14.005Z,100708.53
2023-01-07T02:00:17.709Z,100707.91
2023-01-07T02:04:28.159Z,100717.19
2023-01-07T02:08:31.507Z,100707.53
2023-01-07T02:12:57.880Z,100701.63
2023-01-07T02:17:08.292Z,100696.38
2023-01-07T02:21:25.246Z,100693.63
2023-01-07T02:25:52.650Z,100691.72
2023-01-07T02:30:34.745Z,100690.69
2023-01-07T02:34:45.206Z,100701.22
2023-01-07T02:39:03.374Z,100695.94
2023-01-07T02:43:13.361Z,100692.56
2023-01-07T02:47:20.010Z,100691.94
2023-01-07T02:51:33.012Z,100686.88
2023-01-07T02:55:44.039Z,100693.19
2023-01-07T03:00:04.196Z,100689.63
2023-01-07T03:04:22.769Z,100679.28
2023-01-07T03:08:47.516Z,100683.09
2023-01-07T03:12:58.380Z,100673.84
2023-01-07T03:17:07.137Z,100655.94
2023-01-07T03:21:14.740Z,100659.50
2023-01-07T03:25:22.659Z,100649.41
2023-01-07T03:29:27.272Z,100643.94
2023-01-07T03:33:38.270Z,100648.78
2023-01-07T03:37:43.864Z,100649.41
2023-01-07T03:42:08.119Z,100645.59
2023-01-07T03:46:12.114Z,100651.75
2023-01-07T03:50:16.538Z,100636.78
2023-01-07T03:54:21.449Z,100644.13
2023-01-07T03:58:25.883Z,100635.94
2023-01-07T04:02:29.431Z,100627.28
2023-01-07T04:06:32.586Z,100623.50
2023-01-07T04:10:35.824Z,100616.56
2023-01-07T04:14:40.349Z,100607.09
2023-01-07T04:18:43.453Z,100598.88
2023-01-07T04:22:46.622Z,100593.78
2023-01-07T04:26:49.941Z,100585.38
2023-01-07T04:30:55.268Z,100588.78
2023-01-07T04:34:58.944Z,100588.78
2023-01-07T04:39:03.777Z,100582.06
2023-01-07T04:43:07.018Z,100579.53
2023-01-07T04:47:11.439Z,100574.88
2023-01-07T04:51:14.704Z,100571.53
2023-01-07T04:55:18.504Z,100561.84
2023-01-07T04:59:23.295Z,100556.38
2023-01-07T05:03:27.808Z,100542.47
2023-01-07T05:07:31.403Z,100547.94
2023-01-07T05:11:35.440Z,100536.38
2023-01-07T05:15:40.054Z,100523.50
2023-01-07T05:19:44.539Z,100511.50
2023-01-07T05:23:49.548Z,100507.47
2023-01-07T05:27:52.748Z,100497.81
2023-01-07T05:31:58.847Z,100495.72
2023-01-07T05:36:04.165Z,100486.03
2023-01-07T05:40:09.981Z,100479.75
2023-01-07T05:44:13.128Z,100475.75
2023-01-07T05:48:16.819Z,100477.66
2023-01-07T05:52:21.181Z,100469.03
2023-01-07T05:56:24.236Z,100466.72
2023-01-07T06:00:27.239Z,100472.00
2023-01-07T06:04:30.682Z,100462.94
2023-01-07T06:08:35.197Z,100468.25
2023-01-07T06:12:38.229Z,100476.81
2023-01-07T06:16:42.004Z,100477.47
2023-01-07T06:20:45.092Z,100480.81
2023-01-07T06:24:49.434Z,100482.47
2023-01-07T06:28:53.045Z,100481.41
2023-01-07T06:32:56.279Z,100478.69
2023-01-07T06:36:59.328Z,100470.50
2023-01-07T06:41:03.872Z,100464.22
2023-01-07T06:45:07.699Z,100450.34
2023-01-07T06:49:11.092Z,100452.03
2023-01-07T06:53:14.325Z,100439.41
2023-01-07T06:57:18.768Z,100430.16
2023-01-07T07:01:26.133Z,100425.75
2023-01-07T07:05:29.713Z,100413.13
2023-01-07T07:09:32.765Z,100415.81
2023-01-07T07:13:37.221Z,100405.78
2023-01-07T07:17:40.240Z,100409.91
2023-01-07T07:21:43.354Z,100401.94
2023-01-07T07:25:46.382Z,100397.72
2023-01-07T07:29:50.769Z,100403.59
2023-01-07T07:33:53.849Z,100400.44
2023-01-07T07:37:56.891Z,100394.34
2023-01-07T07:41:59.894Z,100390.13
2023-01-07T07:46:04.756Z,100390.16
2023-01-07T07:50:08.249Z,100380.84
2023-01-07T07:54:11.309Z,100384.22
2023-01-07T07:58:14.905Z,100366.69
2023-01-07T08:02:20.195Z,100375.78
2023-01-07T08:06:23.499Z,100373.03
2023-01-07T08:10:28.183Z,100361.84
2023-01-07T08:14:31.256Z,100361.22
2023-01-07T08:18:35.740Z,100348.78
2023-01-07T08:22:39.049Z,100353.25
2023-01-07T08:26:42.288Z,100348.41
2023-01-07T08:30:45.415Z,100348.22
2023-01-07T08:34:49.948Z,100348.00
2023-01-07T08:38:53.785Z,100346.09
2023-01-07T08:42:59.611Z,100344.22
2023-01-07T08:47:03.002Z,100336.88
2023-01-07T08:51:08.203Z,100344.44
2023-01-07T08:55:11.232Z,100333.66
2023-01-07T08:59:14.259Z,100331.13
2023-01-07T09:03:17.300Z,100331.97
2023-01-07T09:07:21.747Z,100320.03
2023-01-07T09:11:24.824Z,100313.38
2023-01-07T09:15:27.911Z,100296.66
2023-01-07T09:19:30.960Z,100286.59
2023-01-07T09:23:35.575Z,100281.66
2023-01-07T09:27:39.373Z,100282.66
2023-01-07T09:31:42.560Z,100277.38
2023-01-07T09:35:45.816Z,100281.13
2023-01-07T09:39:50.413Z,100272.06
2023-01-07T09:43:59.759Z,100276.22
2023-01-07T09:48:13.615Z,100285.38
2023-01-07T09:52:21.758Z,100293.00
2023-01-07T09:56:28.611Z,100274.56
2023-01-07T10:00:35.186Z,100276.19
2023-01-07T10:04:49.857Z,100264.63
2023-01-07T10:09:04.287Z,100256.53
2023-01-07T10:13:33.749Z,100254.94
2023-01-07T10:17:46.969Z,100238.19
2023-01-07T10:21:55.220Z,100227.66
2023-01-07T10:25:59.947Z,100217.78
2023-01-07T10:30:12.909Z,100210.69
2023-01-07T10:34:20.723Z,100202.81
2023-01-07T10:38:25.963Z,100191.06
2023-01-07T10:42:36.831Z,100178.56
2023-01-07T10:46:52.655Z,100173.50
2023-01-07T10:51:39.860Z,100161.22
2023-01-07T10:55:53.388Z,100156.00
2023-01-07T11:00:02.498Z,100146.09
2023-01-07T11:04:14.382Z,100124.44
2023-01-07T11:08:22.929Z,100105.22
2023-01-07T11:12:33.847Z,100086.22
2023-01-07T11:16:41.906Z,100081.41
2023-01-07T11:20:49.539Z,100069.16
2023-01-07T11:24:53.212Z,100065.03
2023-01-07T11:28:58.940Z,100055.19
2023-01-07T11:33:04.188Z,100035.53
2023-01-07T11:37:12.591Z,100043.00
2023-01-07T11:41:24.560Z,100025.06
2023-01-07T11:45:29.607Z,100018.25
2023-01-07T11:49:33.003Z,100018.78
2023-01-07T11:53:39.151Z,99992.88
2023-01-07T11:57:55.331Z,100002.97
2023-01-07T12:02:04.013Z,100008.81
2023-01-07T12:06:10.483Z,99986.19
2023-01-07T12:10:29.105Z,99978.25
2023-01-07T12:14:34.641Z,99963.16
2023-01-07T12:18:57.436Z,99955.41
2023-01-07T12:23:12.837Z,99954.66
2023-01-07T12:27:29.124Z,99954.94
2023-01-07T12:31:42.921Z,99939.84
2023-01-07T12:35:46.543Z,99940.16
2023-01-07T12:39:57.033Z,99934.00
2023-01-07T12:44:04.353Z,99926.25
2023-01-07T12:48:18.194Z,99926.03
2023-01-07T12:52:29.327Z,99910.84
2023-01-07T12:56:38.365Z,99902.22
2023-01-07T13:00:50.292Z,99895.72
2023-01-07T13:05:01.743Z,99901.34
2023-01-07T13:09:10.649Z,99899.22
2023-01-07T13:13:19.539Z,99879.81
2023-01-07T13:17:27.728Z,99881.63
2023-01-07T13:21:31.283Z,99886.88
2023-01-07T13:25:47.245Z,99875.81
2023-01-07T13:30:03.538Z,99868.16
2023-01-07T13:34:22.183Z,99870.44
2023-01-07T13:38:48.860Z,99869.59
2023-01-07T13:42:55.983Z,99865.13
2023-01-07T13:46:59.622Z,99856.09
2023-01-07T13:51:07.060Z,99846.34
2023-01-07T13:55:33.492Z,99820.56
2023-01-07T13:59:49.594Z,99828.44
2023-01-07T14:03:54.244Z,99837.22
2023-01-07T14:08:02.779Z,99847.53
2023-01-07T14:12:35.545Z,99823.94
2023-01-07T14:16:44.991Z,99820.84
2023-01-07T14:20:52.805Z,99813.84
2023-01-07T14:25:09.523Z,99811.91
2023-01-07T14:29:35.156Z,99817.16
2023-01-07T14:33:40.799Z,99795.25
2023-01-07T14:37:47.065Z,99792.28
2023-01-07T14:42:23.489Z,99793.09
2023-01-07T14:46:57.948Z,99789.28
2023-01-07T14:51:37.386Z,99798.56
2023-01-07T14:55:54.746Z,99792.69
2023-01-07T15:00:36.010Z,99787.56
2023-01-07T15:05:11.014Z,99776.94
2023-01-07T15:09:34.547Z,99773.59
2023-01-07T15:14:00.546Z,99765.50
2023-01-07T15:18:07.817Z,99767.16
2023-01-07T15:22:38.488Z,99744.75
2023-01-07T15:26:49.953Z,99741.94
2023-01-07T15:31:00.482Z,99730.44
2023-01-07T15:35:10.563Z,99740.38
2023-01-07T15:39:25.099Z,99734.88
2023-01-07T15:43:30.454Z,99735.75
2023-01-07T15:47:41.429Z,99740.91
2023-01-07T15:51:48.028Z,99739.81
2023-01-07T15:55:57.195Z,99737.38
2023-01-07T16:00:00.358Z,99738.97
2023-01-07T16:04:03.796Z,99736.53
2023-01-07T16:08:07.413Z,99725.16
2023-01-07T16:12:26.638Z,99732.28
2023-01-07T16:16:31.661Z,99718.94
2023-01-07T16:20:37.697Z,99718.31
2023-01-07T16:24:47.780Z,99708.31
2023-01-07T16:28:55.759Z,99707.47
2023-01-07T16:32:59.290Z,99709.00
2023-01-07T16:37:04.771Z,99716.78
2023-01-07T16:41:08.349Z,99723.25
2023-01-07T16:45:24.448Z,99717.94
2023-01-07T16:49:29.900Z,99719.59
2023-01-07T16:53:34.277Z,99717.94
2023-01-07T16:57:43.134Z,99720.88
2023-01-07T17:01:47.897Z,99726.44
2023-01-07T17:06:03.368Z,99719.31
2023-01-07T17:10:07.508Z,99703.31
2023-01-07T17:14:44.122Z,99700.38
2023-01-07T17:18:48.803Z,99691.16
2023-01-07T17:22:51.860Z,99681.13
2023-01-07T17:26:58.661Z,99672.22
2023-01-07T17:35:48.970Z,99669.72
2023-01-07T17:39:52.073Z,99666.75
2023-01-07T17:43:55.218Z,99662.22
2023-01-07T17:47:59.964Z,99650.41
2023-01-07T17:52:04.623Z,99636.53
2023-01-07T17:56:08.283Z,99623.91
2023-01-07T18:00:16.731Z,99607.16
2023-01-07T18:04:21.506Z,99604.91
2023-01-07T18:08:26.093Z,99602.16
2023-01-07T18:12:31.848Z,99602.50
2023-01-07T18:16:35.183Z,99597.28
2023-01-07T18:20:38.324Z,99588.31
2023-01-07T18:24:42.888Z,99587.84
2023-01-07T18:28:45.991Z,99583.06
2023-01-07T18:32:51.365Z,99586.50
2023-01-07T18:36:54.566Z,99600.47
2023-01-07T18:40:59.093Z,99592.09
2023-01-07T18:45:02.307Z,99597.59
2023-01-07T18:49:05.538Z,99589.84
2023-01-07T18:53:09.630Z,99577.44
2023-01-07T18:57:14.497Z,99581.16
2023-01-07T19:01:19.106Z,99570.78
2023-01-07T19:05:22.321Z,99566.59
2023-01-07T19:09:25.402Z,99591.50
2023-01-07T19:13:29.949Z,99561.97
2023-01-07T19:17:33.942Z,99580.16
2023-01-07T19:21:37.418Z,99569.44
2023-01-07T19:25:40.531Z,99585.44
2023-01-07T19:29:45.008Z,99592.31
2023-01-07T19:33:48.171Z,99594.47
2023-01-07T19:37:51.625Z,99596.63
2023-01-07T19:41:55.096Z,99591.41
2023-01-07T19:45:59.652Z,99607.59
2023-01-07T19:50:03.006Z,99603.53
2023-01-07T19:54:07.241Z,99616.91
2023-01-07T19:58:12.959Z,99638.59
2023-01-07T20:02:17.916Z,99635.81
2023-01-07T20:06:23.809Z,99633.78
2023-01-07T20:10:27.107Z,99626.78
2023-01-07T20:14:30.183Z,99630.59
2023-01-07T20:18:38.250Z,99643.91
2023-01-07T20:22:41.348Z,99630.34
2023-01-07T20:26:44.405Z,99631.44
2023-01-07T20:30:47.890Z,99640.09
2023-01-07T20:34:52.290Z,99636.31
2023-01-07T20:38:55.733Z,99632.22
2023-01-07T20:42:58.821Z,99629.94
2023-01-07T20:47:02.112Z,99628.88
2023-01-07T20:51:08.416Z,99630.56
2023-01-07T20:55:11.639Z,99632.09
2023-01-07T20:59:15.970Z,99633.66
2023-01-07T21:03:19.457Z,99620.00
2023-01-07T21:07:23.936Z,99613.38
2023-01-07T21:11:27.308Z,99616.94
2023-01-07T21:15:30.435Z,99629.53
2023-01-07T21:19:33.578Z,99625.75
2023-01-07T21:23:38.355Z,99620.72
2023-01-07T21:27:41.832Z,99612.78
2023-01-07T21:31:45.447Z,99624.59
2023-01-07T21:35:48.597Z,99624.13
2023-01-07T21:39:53.090Z,99621.03
2023-01-07T21:43:56.390Z,99611.66
2023-01-07T21:47:59.501Z,99607.03
2023-01-07T21:52:02.611Z,99602.16
2023-01-07T21:56:09.236Z,99606.44
2023-01-07T22:00:14.193Z,99593.94
2023-01-07T22:04:17.400Z,99597.50
2023-01-07T22:08:20.568Z,99605.50
2023-01-07T22:12:25.804Z,99598.94
2023-01-07T22:16:30.580Z,99601.44
2023-01-07T22:20:33.693Z,99583.13
2023-01-07T22:24:36.853Z,99598.22
2023-01-07T22:28:42.127Z,99571.31
2023-01-07T22:32:45.416Z,99594.88
2023-01-07T22:36:52.044Z,99593.94
2023-01-07T22:40:55.885Z,99616.03
2023-01-07T22:45:03.788Z,99605.09
2023-01-07T22:49:07.387Z,99589.28
2023-01-07T22:53:12.091Z,99580.47
2023-01-07T22:57:15.647Z,99572.06
2023-01-07T23:01:23.932Z,99559.31
2023-01-07T23:05:27.300Z,99555.50
2023-01-07T23:09:30.347Z,99554.44
2023-01-07T23:13:33.770Z,99565.97
2023-01-07T23:17:38.187Z,99562.66
2023-01-07T23:21:43.402Z,99554.91
2023-01-07T23:25:47.212Z,99538.38
2023-01-07T23:29:50.257Z,99535.50
2023-01-07T23:33:54.678Z,99524.69
2023-01-07T23:37:57.887Z,99523.50
2023-01-07T23:42:01.395Z,99504.56
2023-01-07T23:46:07.501Z,99530.28
2023-01-07T23:50:12.828Z,99540.00
2023-01-07T23:54:15.890Z,99531.69
2023-01-07T23:58:18.956Z,99530.47
